createdAt,value
2018-06-13T00:00:59.210Z,4.00
2018-06-13T00:01:59.212Z,4.00
2018-06-13T00:02:59.214Z,4.00
2018-06-13T00:03:59.215Z,4.00
2018-06-13T00:04:59.216Z,4.00
2018-06-13T00:05:59.217Z,4.00
2018-06-13T00:06:59.222Z,4.00
2018-06-13T00:07:59.226Z,4.00
2018-06-13T00:08:59.220Z,4.00
2018-06-13T00:09:59.223Z,8.00
2018-06-13T00:10:59.223Z,4.00
2018-06-13T00:11:59.224Z,4.00
2018-06-13T00:12:59.227Z,4.00
2018-06-13T00:13:59.227Z,4.00
2018-06-13T00:14:59.229Z,4.00
2018-06-13T00:15:59.229Z,4.00
2018-06-13T00:16:59.232Z,4.00
2018-06-13T00:17:59.232Z,4.00
2018-06-13T00:18:59.234Z,4.00
2018-06-13T00:19:59.236Z,4.00
2018-06-13T00:20:59.238Z,4.00
2018-06-13T00:21:59.242Z,4.00
2018-06-13T00:22:59.239Z,4.00
2018-06-13T00:23:59.242Z,4.00
2018-06-13T00:24:59.242Z,4.00
2018-06-13T00:25:59.244Z,4.00
2018-06-13T00:26:59.245Z,4.00
2018-06-13T00:27:59.245Z,4.00
2018-06-13T00:28:59.250Z,4.00
2018-06-13T00:29:59.248Z,4.00
2018-06-13T00:30:59.251Z,4.00
2018-06-13T00:31:59.252Z,4.00
2018-06-13T00:32:59.253Z,4.00
2018-06-13T00:33:59.254Z,4.00
2018-06-13T00:34:59.316Z,4.00
2018-06-13T00:35:59.257Z,4.00
2018-06-13T00:36:59.331Z,4.00
2018-06-13T00:37:59.259Z,4.00
2018-06-13T00:38:59.261Z,4.00
2018-06-13T00:39:59.261Z,4.00
2018-06-13T00:40:59.263Z,4.00
2018-06-13T00:41:59.265Z,4.00
2018-06-13T00:42:59.272Z,4.00
2018-06-13T00:43:59.268Z,4.00
2018-06-13T00:44:59.271Z,4.00
2018-06-13T00:45:59.275Z,4.00
2018-06-13T00:46:59.281Z,4.00
2018-06-13T00:47:59.274Z,4.00
2018-06-13T00:48:59.274Z,4.00
2018-06-13T00:49:59.277Z,4.00
2018-06-13T00:50:59.279Z,4.00
2018-06-13T00:51:59.280Z,4.00
2018-06-13T00:52:59.282Z,4.00
2018-06-13T00:53:59.281Z,4.00
2018-06-13T00:54:59.287Z,4.00
2018-06-13T00:55:59.286Z,4.00
2018-06-13T00:56:59.293Z,4.00
2018-06-13T00:57:59.292Z,4.00
2018-06-13T00:58:59.288Z,4.00
2018-06-13T00:59:59.289Z,4.00
2018-06-13T01:00:59.291Z,4.00
2018-06-13T01:01:59.292Z,4.00
2018-06-13T01:02:59.294Z,4.00
2018-06-13T01:03:59.294Z,4.00
2018-06-13T01:04:59.294Z,4.00
2018-06-13T01:05:59.296Z,4.00
2018-06-13T01:06:59.298Z,4.00
2018-06-13T01:07:59.298Z,4.00
2018-06-13T01:08:59.299Z,4.00
2018-06-13T01:09:59.300Z,4.00
2018-06-13T01:10:59.314Z,4.00
2018-06-13T01:11:59.303Z,4.00
2018-06-13T01:12:59.304Z,4.00
2018-06-13T01:13:59.304Z,4.00
2018-06-13T01:14:59.308Z,4.00
2018-06-13T01:15:59.306Z,4.00
2018-06-13T01:16:59.309Z,4.00
2018-06-13T01:17:59.308Z,4.00
2018-06-13T01:18:59.310Z,4.00
2018-06-13T01:19:59.312Z,4.00
2018-06-13T01:20:59.312Z,4.00
2018-06-13T01:21:59.314Z,4.00
2018-06-13T01:22:59.313Z,4.00
2018-06-13T01:23:59.317Z,4.00
2018-06-13T01:24:59.317Z,4.00
2018-06-13T01:25:59.318Z,4.00
2018-06-13T01:26:59.319Z,4.00
2018-06-13T01:27:59.319Z,4.00
2018-06-13T01:28:59.333Z,4.00
2018-06-13T01:29:59.320Z,4.00
2018-06-13T01:30:59.325Z,4.00
2018-06-13T01:31:59.326Z,4.00
2018-06-13T01:32:59.327Z,4.00
2018-06-13T01:33:59.325Z,4.00
2018-06-13T01:34:59.327Z,4.00
2018-06-13T01:35:59.332Z,4.00
2018-06-13T01:36:59.329Z,4.00
2018-06-13T01:37:59.331Z,4.00
2018-06-13T01:38:59.331Z,4.00
2018-06-13T01:39:59.332Z,4.00
2018-06-13T01:40:59.333Z,4.00
2018-06-13T01:41:59.335Z,4.00
2018-06-13T01:42:59.335Z,4.00
2018-06-13T01:43:59.336Z,4.00
2018-06-13T01:44:59.336Z,4.00
2018-06-13T01:45:59.337Z,4.00
2018-06-13T01:46:59.340Z,4.00
2018-06-13T01:47:59.341Z,4.00
2018-06-13T01:48:59.346Z,4.00
2018-06-13T01:49:59.343Z,4.00
2018-06-13T01:50:59.344Z,4.00
2018-06-13T01:51:59.344Z,4.00
2018-06-13T01:52:59.345Z,4.00
2018-06-13T01:53:59.350Z,4.00
2018-06-13T01:54:59.354Z,4.00
2018-06-13T01:55:59.349Z,4.00
2018-06-13T01:56:59.350Z,8.00
2018-06-13T01:57:59.350Z,8.00
2018-06-13T01:58:59.352Z,8.00
2018-06-13T01:59:59.355Z,4.00
2018-06-13T02:00:59.354Z,8.00
2018-06-13T02:01:59.357Z,8.00
2018-06-13T02:02:59.356Z,8.00
2018-06-13T02:03:59.357Z,8.00
2018-06-13T02:04:59.359Z,8.00
2018-06-13T02:05:59.359Z,8.00
2018-06-13T02:06:59.365Z,8.00
2018-06-13T02:07:59.364Z,8.00
2018-06-13T02:08:59.367Z,8.00
2018-06-13T02:09:59.364Z,8.00
2018-06-13T02:10:59.365Z,8.00
2018-06-13T02:11:59.366Z,8.00
2018-06-13T02:12:59.369Z,8.00
2018-06-13T02:13:59.369Z,8.00
2018-06-13T02:14:59.371Z,8.00
2018-06-13T02:15:59.370Z,8.00
2018-06-13T02:16:59.370Z,8.00
2018-06-13T02:17:59.373Z,8.00
2018-06-13T02:18:59.376Z,8.00
2018-06-13T02:19:59.373Z,8.00
2018-06-13T02:20:59.374Z,8.00
2018-06-13T02:21:59.378Z,8.00
2018-06-13T02:22:59.377Z,8.00
2018-06-13T02:23:59.378Z,4.00
2018-06-13T02:24:59.381Z,8.00
2018-06-13T02:25:59.382Z,4.00
2018-06-13T02:26:59.413Z,8.00
2018-06-13T02:27:59.383Z,8.00
2018-06-13T02:28:59.408Z,8.00
2018-06-13T02:29:59.388Z,8.00
2018-06-13T02:30:59.392Z,8.00
2018-06-13T02:31:59.392Z,8.00
2018-06-13T02:32:59.391Z,8.00
2018-06-13T02:33:59.389Z,8.00
2018-06-13T02:34:59.393Z,12.00
2018-06-13T02:35:59.392Z,8.00
2018-06-13T02:36:59.394Z,12.00
2018-06-13T02:37:59.395Z,12.00
2018-06-13T02:38:59.396Z,4.00
2018-06-13T02:39:59.395Z,8.00
2018-06-13T02:40:59.394Z,8.00
2018-06-13T02:41:59.395Z,12.00
2018-06-13T02:42:59.396Z,12.00
2018-06-13T02:43:59.396Z,12.00
2018-06-13T02:44:59.397Z,12.00
2018-06-13T02:45:59.399Z,12.00
2018-06-13T02:46:59.402Z,12.00
2018-06-13T02:47:59.402Z,12.00
2018-06-13T02:48:59.401Z,16.00
2018-06-13T02:49:59.403Z,16.00
2018-06-13T02:50:59.403Z,16.00
2018-06-13T02:51:59.403Z,20.00
2018-06-13T02:52:59.403Z,20.00
2018-06-13T02:53:59.406Z,24.00
2018-06-13T02:54:59.411Z,24.00
2018-06-13T02:55:59.405Z,24.00
2018-06-13T02:56:59.408Z,28.00
2018-06-13T02:57:59.407Z,28.00
2018-06-13T02:58:59.411Z,32.00
2018-06-13T02:59:59.422Z,32.00
2018-06-13T03:00:59.411Z,36.00
2018-06-13T03:01:59.414Z,32.00
2018-06-13T03:02:59.417Z,36.00
2018-06-13T03:03:59.411Z,36.00
2018-06-13T03:04:59.424Z,40.00
2018-06-13T03:05:59.418Z,40.00
2018-06-13T03:06:59.424Z,40.00
2018-06-13T03:07:59.418Z,40.00
2018-06-13T03:08:59.416Z,40.00
2018-06-13T03:09:59.458Z,44.00
2018-06-13T03:10:59.417Z,44.00
2018-06-13T03:11:59.453Z,52.00
2018-06-13T03:12:59.419Z,56.00
2018-06-13T03:13:59.419Z,56.00
2018-06-13T03:14:59.420Z,56.00
2018-06-13T03:15:59.421Z,60.00
2018-06-13T03:16:59.424Z,56.00
2018-06-13T03:17:59.422Z,60.00
2018-06-13T03:18:59.426Z,64.00
2018-06-13T03:19:59.423Z,68.00
2018-06-13T03:20:59.425Z,68.00
2018-06-13T03:21:59.427Z,72.00
2018-06-13T03:22:59.427Z,68.00
2018-06-13T03:23:59.431Z,72.00
2018-06-13T03:24:59.428Z,72.00
2018-06-13T03:25:59.429Z,72.00
2018-06-13T03:26:59.429Z,72.00
2018-06-13T03:27:59.429Z,72.00
2018-06-13T03:28:59.434Z,76.00
2018-06-13T03:29:59.435Z,76.00
2018-06-13T03:30:59.433Z,80.00
2018-06-13T03:31:59.436Z,84.00
2018-06-13T03:32:59.440Z,88.00
2018-06-13T03:33:59.436Z,84.00
2018-06-13T03:34:59.436Z,84.00
2018-06-13T03:35:59.436Z,84.00
2018-06-13T03:36:59.438Z,84.00
2018-06-13T03:37:59.440Z,80.00
2018-06-13T03:38:59.441Z,80.00
2018-06-13T03:39:59.442Z,80.00
2018-06-13T03:40:59.488Z,72.00
2018-06-13T03:41:59.446Z,68.00
2018-06-13T03:42:59.452Z,64.00
2018-06-13T03:43:59.445Z,64.00
2018-06-13T03:44:59.444Z,64.00
2018-06-13T03:45:59.447Z,64.00
2018-06-13T03:46:59.480Z,64.00
2018-06-13T03:47:59.449Z,68.00
2018-06-13T03:48:59.450Z,68.00
2018-06-13T03:49:59.456Z,68.00
2018-06-13T03:50:59.452Z,68.00
2018-06-13T03:51:59.454Z,68.00
2018-06-13T03:52:59.457Z,72.00
2018-06-13T03:53:59.454Z,76.00
2018-06-13T03:54:59.458Z,76.00
2018-06-13T03:55:59.455Z,80.00
2018-06-13T03:56:59.455Z,80.00
2018-06-13T03:57:59.464Z,84.00
2018-06-13T03:58:59.459Z,88.00
2018-06-13T03:59:59.458Z,92.00
2018-06-13T04:00:59.459Z,92.00
2018-06-13T04:01:59.462Z,96.00
2018-06-13T04:02:59.463Z,96.00
2018-06-13T04:03:59.471Z,100.00
2018-06-13T04:04:59.463Z,100.00
2018-06-13T04:05:59.463Z,100.00
2018-06-13T04:06:59.465Z,100.00
2018-06-13T04:07:59.464Z,100.00
2018-06-13T04:08:59.465Z,104.00
2018-06-13T04:09:59.465Z,112.00
2018-06-13T04:10:59.472Z,112.00
2018-06-13T04:11:59.467Z,112.00
2018-06-13T04:12:59.467Z,112.00
2018-06-13T04:13:59.470Z,116.00
2018-06-13T04:14:59.477Z,120.00
2018-06-13T04:15:59.468Z,124.00
2018-06-13T04:16:59.470Z,132.00
2018-06-13T04:17:59.472Z,136.00
2018-06-13T04:18:59.472Z,144.00
2018-06-13T04:19:59.472Z,148.00
2018-06-13T04:20:59.472Z,152.00
2018-06-13T04:21:59.474Z,160.00
2018-06-13T04:22:59.476Z,156.00
2018-06-13T04:23:59.473Z,164.00
2018-06-13T04:24:59.477Z,168.00
2018-06-13T04:25:59.479Z,176.00
2018-06-13T04:26:59.477Z,176.00
2018-06-13T04:27:59.478Z,180.00
2018-06-13T04:28:59.477Z,180.00
2018-06-13T04:29:59.479Z,188.00
2018-06-13T04:30:59.482Z,200.00
2018-06-13T04:31:59.488Z,216.00
2018-06-13T04:32:59.480Z,224.00
2018-06-13T04:33:59.490Z,236.00
2018-06-13T04:34:59.484Z,240.00
2018-06-13T04:35:59.483Z,248.00
2018-06-13T04:36:59.490Z,244.00
2018-06-13T04:37:59.483Z,248.00
2018-06-13T04:38:59.485Z,256.00
2018-06-13T04:39:59.482Z,268.00
2018-06-13T04:40:59.486Z,272.00
2018-06-13T04:41:59.498Z,280.00
2018-06-13T04:42:59.485Z,284.00
2018-06-13T04:43:59.492Z,284.00
2018-06-13T04:44:59.485Z,276.00
2018-06-13T04:45:59.489Z,272.00
2018-06-13T04:46:59.488Z,272.00
2018-06-13T04:47:59.497Z,264.00
2018-06-13T04:48:59.488Z,252.00
2018-06-13T04:49:59.536Z,252.00
2018-06-13T04:50:59.489Z,248.00
2018-06-13T04:51:59.488Z,244.00
2018-06-13T04:52:59.490Z,248.00
2018-06-13T04:53:59.489Z,248.00
2018-06-13T04:54:59.490Z,244.00
2018-06-13T04:55:59.494Z,244.00
2018-06-13T04:56:59.490Z,256.00
2018-06-13T04:57:59.492Z,248.00
2018-06-13T04:58:59.496Z,252.00
2018-06-13T04:59:59.568Z,272.00
2018-06-13T05:00:59.491Z,292.00
2018-06-13T05:01:59.498Z,316.00
2018-06-13T05:02:59.495Z,344.00
2018-06-13T05:03:59.494Z,312.00
2018-06-13T05:04:59.496Z,292.00
2018-06-13T05:05:59.496Z,276.00
2018-06-13T05:06:59.494Z,260.00
2018-06-13T05:07:59.494Z,256.00
2018-06-13T05:08:59.495Z,296.00
2018-06-13T05:09:59.502Z,324.00
2018-06-13T05:10:59.497Z,312.00
2018-06-13T05:11:59.498Z,348.00
2018-06-13T05:12:59.496Z,396.00
2018-06-13T05:13:59.499Z,424.00
2018-06-13T05:14:59.500Z,460.00
2018-06-13T05:15:59.499Z,488.00
2018-06-13T05:16:59.501Z,516.00
2018-06-13T05:17:59.500Z,552.00
2018-06-13T05:18:59.501Z,592.00
2018-06-13T05:19:59.504Z,632.00
2018-06-13T05:20:59.500Z,688.00
2018-06-13T05:21:59.502Z,748.00
2018-06-13T05:22:59.503Z,788.00
2018-06-13T05:23:59.506Z,812.00
2018-06-13T05:24:59.503Z,840.00
2018-06-13T05:25:59.503Z,888.00
2018-06-13T05:26:59.504Z,896.00
2018-06-13T05:27:59.504Z,888.00
2018-06-13T05:28:59.504Z,892.00
2018-06-13T05:29:59.506Z,880.00
2018-06-13T05:30:59.505Z,880.00
2018-06-13T05:31:59.506Z,868.00
2018-06-13T05:32:59.508Z,844.00
2018-06-13T05:33:59.507Z,844.00
2018-06-13T05:34:59.507Z,844.00
2018-06-13T05:35:59.508Z,848.00
2018-06-13T05:36:59.508Z,880.00
2018-06-13T05:37:59.507Z,916.00
2018-06-13T05:38:59.522Z,920.00
2018-06-13T05:39:59.516Z,932.00
2018-06-13T05:40:59.509Z,936.00
2018-06-13T05:41:59.564Z,924.00
2018-06-13T05:42:59.510Z,952.00
2018-06-13T05:43:59.511Z,980.00
2018-06-13T05:44:59.512Z,1024.00
2018-06-13T05:45:59.514Z,1072.00
2018-06-13T05:46:59.515Z,1132.00
2018-06-13T05:47:59.528Z,1260.00
2018-06-13T05:48:59.512Z,1324.00
2018-06-13T05:49:59.512Z,1368.00
2018-06-13T05:50:59.516Z,1416.00
2018-06-13T05:51:59.515Z,1380.00
2018-06-13T05:52:59.514Z,1396.00
2018-06-13T05:53:59.515Z,1392.00
2018-06-13T05:54:59.586Z,1372.00
2018-06-13T05:55:59.516Z,1352.00
2018-06-13T05:56:59.539Z,1336.00
2018-06-13T05:57:59.517Z,1324.00
2018-06-13T05:58:59.521Z,1316.00
2018-06-13T05:59:59.517Z,1304.00
2018-06-13T06:00:59.522Z,1276.00
2018-06-13T06:01:59.519Z,1236.00
2018-06-13T06:03:00.932Z,1200.00
2018-06-13T06:03:59.801Z,1184.00
2018-06-13T06:04:59.521Z,1192.00
2018-06-13T06:05:59.810Z,1152.00
2018-06-13T06:06:59.522Z,1188.00
2018-06-13T06:07:59.522Z,1248.00
2018-06-13T06:08:59.522Z,1340.00
2018-06-13T06:09:59.581Z,1404.00
2018-06-13T06:10:59.524Z,1416.00
2018-06-13T06:11:59.524Z,1408.00
2018-06-13T06:12:59.525Z,1432.00
2018-06-13T06:13:59.525Z,1456.00
2018-06-13T06:14:59.527Z,1512.00
2018-06-13T06:15:59.526Z,1520.00
2018-06-13T06:16:59.526Z,1544.00
2018-06-13T06:17:59.765Z,1648.00
2018-06-13T06:18:59.541Z,1772.00
2018-06-13T06:19:59.771Z,1880.00
2018-06-13T06:20:59.528Z,1940.00
2018-06-13T06:21:59.530Z,1940.00
2018-06-13T06:22:59.610Z,1932.00
2018-06-13T06:23:59.551Z,1924.00
2018-06-13T06:24:59.533Z,1864.00
2018-06-13T06:25:59.535Z,1820.00
2018-06-13T06:26:59.543Z,1780.00
2018-06-13T06:27:59.534Z,1740.00
2018-06-13T06:28:59.534Z,1728.00
2018-06-13T06:29:59.534Z,1740.00
2018-06-13T06:30:59.538Z,1752.00
2018-06-13T06:31:59.550Z,1832.00
2018-06-13T06:32:59.537Z,1964.00
2018-06-13T06:33:59.540Z,2024.00
2018-06-13T06:34:59.542Z,2096.00
2018-06-13T06:35:59.539Z,2144.00
2018-06-13T06:36:59.597Z,2136.00
2018-06-13T06:38:00.074Z,2108.00
2018-06-13T06:38:59.547Z,2192.00
2018-06-13T06:39:59.653Z,2108.00
2018-06-13T06:40:59.801Z,2124.00
2018-06-13T06:41:59.601Z,2144.00
2018-06-13T06:42:59.845Z,2124.00
2018-06-13T06:43:59.755Z,2072.00
2018-06-13T06:44:59.562Z,1956.00
2018-06-13T06:45:59.550Z,1804.00
2018-06-13T06:46:59.624Z,1668.00
2018-06-13T06:47:59.634Z,1576.00
2018-06-13T06:48:59.573Z,1532.00
2018-06-13T06:49:59.554Z,1532.00
2018-06-13T06:50:59.566Z,1536.00
2018-06-13T06:51:59.560Z,1532.00
2018-06-13T06:52:59.557Z,1552.00
2018-06-13T06:53:59.558Z,1596.00
2018-06-13T06:54:59.562Z,1668.00
2018-06-13T06:55:59.567Z,1684.00
2018-06-13T06:56:59.564Z,1636.00
2018-06-13T06:57:59.568Z,1548.00
2018-06-13T06:58:59.567Z,1420.00
2018-06-13T06:59:59.566Z,1300.00
2018-06-13T07:00:59.566Z,1204.00
2018-06-13T07:01:59.574Z,1128.00
2018-06-13T07:02:59.569Z,1096.00
2018-06-13T07:03:59.570Z,1072.00
2018-06-13T07:04:59.571Z,1084.00
2018-06-13T07:05:59.571Z,1052.00
2018-06-13T07:06:59.573Z,1036.00
2018-06-13T07:07:59.576Z,1028.00
2018-06-13T07:08:59.578Z,1020.00
2018-06-13T07:09:59.577Z,1004.00
2018-06-13T07:10:59.577Z,1016.00
2018-06-13T07:11:59.579Z,1040.00
2018-06-13T07:12:59.585Z,1052.00
2018-06-13T07:13:59.583Z,1076.00
2018-06-13T07:14:59.582Z,1104.00
2018-06-13T07:15:59.590Z,1132.00
2018-06-13T07:16:59.607Z,1164.00
2018-06-13T07:17:59.584Z,1232.00
2018-06-13T07:18:59.642Z,1296.00
2018-06-13T07:19:59.584Z,1356.00
2018-06-13T07:20:59.585Z,1408.00
2018-06-13T07:21:59.592Z,1464.00
2018-06-13T07:22:59.587Z,1468.00
2018-06-13T07:23:59.587Z,1484.00
2018-06-13T07:24:59.588Z,1400.00
2018-06-13T07:25:59.594Z,1340.00
2018-06-13T07:27:00.366Z,1364.00
2018-06-13T07:27:59.591Z,1460.00
2018-06-13T07:28:59.591Z,1372.00
2018-06-13T07:29:59.595Z,1312.00
2018-06-13T07:30:59.600Z,1268.00
2018-06-13T07:31:59.724Z,1156.00
2018-06-13T07:32:59.604Z,1052.00
2018-06-13T07:33:59.592Z,964.00
2018-06-13T07:34:59.603Z,928.00
2018-06-13T07:35:59.594Z,900.00
2018-06-13T07:36:59.593Z,928.00
2018-06-13T07:37:59.595Z,928.00
2018-06-13T07:38:59.596Z,944.00
2018-06-13T07:39:59.595Z,908.00
2018-06-13T07:40:59.596Z,896.00
2018-06-13T07:41:59.606Z,880.00
2018-06-13T07:42:59.601Z,868.00
2018-06-13T07:43:59.596Z,860.00
2018-06-13T07:44:59.645Z,864.00
2018-06-13T07:45:59.598Z,856.00
2018-06-13T07:46:59.603Z,844.00
2018-06-13T07:47:59.600Z,848.00
2018-06-13T07:48:59.603Z,864.00
2018-06-13T07:49:59.600Z,872.00
2018-06-13T07:50:59.601Z,836.00
2018-06-13T07:51:59.801Z,848.00
2018-06-13T07:52:59.599Z,896.00
2018-06-13T07:53:59.600Z,904.00
2018-06-13T07:54:59.601Z,916.00
2018-06-13T07:55:59.600Z,888.00
2018-06-13T07:56:59.600Z,864.00
2018-06-13T07:57:59.841Z,828.00
2018-06-13T07:58:59.616Z,804.00
2018-06-13T07:59:59.726Z,796.00
2018-06-13T08:00:59.613Z,792.00
2018-06-13T08:01:59.639Z,804.00
2018-06-13T08:02:59.646Z,812.00
2018-06-13T08:03:59.607Z,812.00
2018-06-13T08:04:59.607Z,816.00
2018-06-13T08:05:59.610Z,824.00
2018-06-13T08:06:59.607Z,828.00
2018-06-13T08:07:59.688Z,824.00
2018-06-13T08:08:59.604Z,824.00
2018-06-13T08:09:59.605Z,836.00
2018-06-13T08:10:59.607Z,852.00
2018-06-13T08:11:59.605Z,888.00
2018-06-13T08:12:59.608Z,904.00
2018-06-13T08:13:59.611Z,928.00
2018-06-13T08:14:59.607Z,968.00
2018-06-13T08:15:59.606Z,996.00
2018-06-13T08:16:59.607Z,1012.00
2018-06-13T08:17:59.628Z,1040.00
2018-06-13T08:18:59.608Z,1064.00
2018-06-13T08:19:59.612Z,1076.00
2018-06-13T08:20:59.616Z,1092.00
2018-06-13T08:21:59.610Z,1148.00
2018-06-13T08:22:59.646Z,1160.00
2018-06-13T08:23:59.620Z,1156.00
2018-06-13T08:24:59.609Z,1204.00
2018-06-13T08:25:59.653Z,1300.00
2018-06-13T08:26:59.611Z,1328.00
2018-06-13T08:27:59.612Z,1328.00
2018-06-13T08:28:59.613Z,1308.00
2018-06-13T08:29:59.653Z,1340.00
2018-06-13T08:30:59.625Z,1376.00
2018-06-13T08:31:59.608Z,1384.00
2018-06-13T08:32:59.608Z,1388.00
2018-06-13T08:33:59.614Z,1472.00
2018-06-13T08:34:59.613Z,1600.00
2018-06-13T08:35:59.613Z,1788.00
2018-06-13T08:36:59.612Z,2084.00
2018-06-13T08:37:59.635Z,2404.00
2018-06-13T08:38:59.613Z,2648.00
2018-06-13T08:39:59.618Z,2796.00
2018-06-13T08:40:59.613Z,2924.00
2018-06-13T08:41:59.619Z,3064.00
2018-06-13T08:42:59.866Z,3228.00
2018-06-13T08:43:59.778Z,3392.00
2018-06-13T08:44:59.772Z,3548.00
2018-06-13T08:45:59.729Z,3684.00
2018-06-13T08:46:59.621Z,3828.00
2018-06-13T08:47:59.637Z,4012.00
2018-06-13T08:48:59.623Z,4252.00
2018-06-13T08:49:59.639Z,4384.00
2018-06-13T08:50:59.625Z,4828.00
2018-06-13T08:51:59.683Z,5256.00
2018-06-13T08:52:59.629Z,4776.00
2018-06-13T08:53:59.636Z,5140.00
2018-06-13T08:54:59.628Z,5244.00
2018-06-13T08:55:59.630Z,5352.00
2018-06-13T08:56:59.638Z,5056.00
2018-06-13T08:57:59.639Z,4932.00
2018-06-13T08:58:59.643Z,5008.00
2018-06-13T08:59:59.636Z,4916.00
2018-06-13T09:00:59.638Z,5108.00
2018-06-13T09:01:59.640Z,4988.00
2018-06-13T09:02:59.644Z,4448.00
2018-06-13T09:03:59.644Z,4196.00
2018-06-13T09:04:59.650Z,4408.00
2018-06-13T09:05:59.656Z,4844.00
2018-06-13T09:06:59.652Z,5276.00
2018-06-13T09:08:00.411Z,4976.00
2018-06-13T09:08:59.670Z,5680.00
2018-06-13T09:09:59.656Z,6304.00
2018-06-13T09:10:59.659Z,4932.00
2018-06-13T09:11:59.668Z,4228.00
2018-06-13T09:12:59.662Z,4116.00
2018-06-13T09:13:59.669Z,3968.00
2018-06-13T09:14:59.708Z,3968.00
2018-06-13T09:15:59.670Z,4216.00
2018-06-13T09:16:59.673Z,4476.00
2018-06-13T09:17:59.711Z,3780.00
2018-06-13T09:18:59.679Z,3232.00
2018-06-13T09:19:59.682Z,3016.00
2018-06-13T09:20:59.685Z,2808.00
2018-06-13T09:21:59.687Z,2708.00
2018-06-13T09:22:59.719Z,2492.00
2018-06-13T09:23:59.689Z,2280.00
2018-06-13T09:24:59.692Z,2192.00
2018-06-13T09:25:59.693Z,2212.00
2018-06-13T09:26:59.696Z,2348.00
2018-06-13T09:27:59.698Z,2424.00
2018-06-13T09:28:59.700Z,2372.00
2018-06-13T09:29:59.711Z,2396.00
2018-06-13T09:30:59.704Z,2468.00
2018-06-13T09:31:59.708Z,2504.00
2018-06-13T09:32:59.714Z,2592.00
2018-06-13T09:33:59.731Z,2732.00
2018-06-13T09:34:59.715Z,2884.00
2018-06-13T09:35:59.717Z,3020.00
2018-06-13T09:36:59.717Z,3100.00
2018-06-13T09:37:59.728Z,3128.00
2018-06-13T09:38:59.730Z,3140.00
2018-06-13T09:39:59.728Z,3164.00
2018-06-13T09:40:59.730Z,3180.00
2018-06-13T09:41:59.728Z,3236.00
2018-06-13T09:42:59.729Z,3348.00
2018-06-13T09:43:59.763Z,3452.00
2018-06-13T09:44:59.732Z,3360.00
2018-06-13T09:46:03.401Z,3132.00
2018-06-13T09:47:06.899Z,2920.00
2018-06-13T09:47:59.771Z,2796.00
2018-06-13T09:48:59.741Z,2784.00
2018-06-13T09:49:59.755Z,2856.00
2018-06-13T09:50:59.747Z,2968.00
2018-06-13T09:51:59.750Z,3088.00
2018-06-13T09:52:59.759Z,3256.00
2018-06-13T09:53:59.770Z,3520.00
2018-06-13T09:54:59.767Z,3844.00
2018-06-13T09:55:59.754Z,4168.00
2018-06-13T09:56:59.757Z,4340.00
2018-06-13T09:57:59.761Z,4800.00
2018-06-13T09:58:59.763Z,4716.00
2018-06-13T09:59:59.768Z,4792.00
2018-06-13T10:00:59.778Z,5004.00
2018-06-13T10:01:59.772Z,5692.00
2018-06-13T10:02:59.771Z,7072.00
2018-06-13T10:03:59.772Z,5828.00
2018-06-13T10:04:59.782Z,5552.00
2018-06-13T10:05:59.782Z,5384.00
2018-06-13T10:06:59.784Z,5368.00
2018-06-13T10:07:59.797Z,5412.00
2018-06-13T10:08:59.786Z,5016.00
2018-06-13T10:09:59.827Z,4572.00
2018-06-13T10:10:59.796Z,4404.00
2018-06-13T10:11:59.840Z,4204.00
2018-06-13T10:12:59.825Z,3768.00
2018-06-13T10:13:59.805Z,3436.00
2018-06-13T10:14:59.808Z,3488.00
2018-06-13T10:15:59.972Z,3628.00
2018-06-13T10:16:59.892Z,3624.00
2018-06-13T10:17:59.816Z,3420.00
2018-06-13T10:18:59.919Z,3248.00
2018-06-13T10:19:59.820Z,3188.00
2018-06-13T10:20:59.827Z,3268.00
2018-06-13T10:21:59.942Z,3428.00
2018-06-13T10:22:59.969Z,3540.00
2018-06-13T10:24:00.123Z,3704.00
2018-06-13T10:24:59.837Z,3844.00
2018-06-13T10:25:59.843Z,3944.00
2018-06-13T10:26:59.840Z,3976.00
2018-06-13T10:28:00.027Z,4012.00
2018-06-13T10:28:59.856Z,4036.00
2018-06-13T10:29:59.849Z,4144.00
2018-06-13T10:30:59.851Z,4284.00
2018-06-13T10:31:59.857Z,4380.00
2018-06-13T10:32:59.857Z,4540.00
2018-06-13T10:33:59.864Z,4756.00
2018-06-13T10:34:59.863Z,4864.00
2018-06-13T10:35:59.865Z,5000.00
2018-06-13T10:36:59.875Z,4876.00
2018-06-13T10:37:59.880Z,4696.00
2018-06-13T10:38:59.874Z,4612.00
2018-06-13T10:39:59.876Z,4644.00
2018-06-13T10:41:00.927Z,4744.00
2018-06-13T10:41:59.973Z,4936.00
2018-06-13T10:42:59.886Z,5240.00
2018-06-13T10:43:59.896Z,5584.00
2018-06-13T10:44:59.903Z,5880.00
2018-06-13T10:45:59.895Z,6260.00
2018-06-13T10:46:59.902Z,6364.00
2018-06-13T10:48:00.090Z,5520.00
2018-06-13T10:49:00.266Z,6840.00
2018-06-13T10:49:59.908Z,5964.00
2018-06-13T10:51:00.215Z,5584.00
2018-06-13T10:51:59.964Z,5380.00
2018-06-13T10:53:00.084Z,5304.00
2018-06-13T10:54:00.199Z,5304.00
2018-06-13T10:54:59.922Z,5304.00
2018-06-13T10:55:59.931Z,5268.00
2018-06-13T10:56:59.933Z,5152.00
2018-06-13T10:57:59.928Z,5024.00
2018-06-13T10:58:59.953Z,4964.00
2018-06-13T10:59:59.937Z,4828.00
2018-06-13T11:00:59.940Z,4684.00
2018-06-13T11:01:59.943Z,4672.00
2018-06-13T11:02:59.943Z,4696.00
2018-06-13T11:03:59.942Z,4656.00
2018-06-13T11:04:59.971Z,4724.00
2018-06-13T11:05:59.953Z,4780.00
2018-06-13T11:06:59.957Z,4752.00
2018-06-13T11:07:59.956Z,4604.00
2018-06-13T11:09:00.091Z,4432.00
2018-06-13T11:09:59.960Z,4324.00
2018-06-13T11:10:59.963Z,4276.00
2018-06-13T11:11:59.965Z,4284.00
2018-06-13T11:12:59.967Z,4296.00
2018-06-13T11:13:59.972Z,4316.00
2018-06-13T11:15:00.016Z,4332.00
2018-06-13T11:15:59.979Z,4436.00
2018-06-13T11:16:59.985Z,4632.00
2018-06-13T11:17:59.987Z,4688.00
2018-06-13T11:19:00.001Z,4680.00
2018-06-13T11:19:59.990Z,4692.00
2018-06-13T11:21:00.059Z,4740.00
2018-06-13T11:22:01.036Z,4732.00
2018-06-13T11:23:00.000Z,4688.00
2018-06-13T11:24:00.030Z,4496.00
2018-06-13T11:25:00.006Z,4332.00
2018-06-13T11:26:00.017Z,4220.00
2018-06-13T11:27:00.014Z,4212.00
2018-06-13T11:28:00.026Z,4172.00
2018-06-13T11:29:00.036Z,4168.00
2018-06-13T11:30:00.945Z,4228.00
2018-06-13T11:31:00.077Z,4120.00
2018-06-13T11:32:00.023Z,3872.00
2018-06-13T11:33:00.028Z,3740.00
2018-06-13T11:34:00.035Z,3544.00
2018-06-13T11:35:00.032Z,3328.00
2018-06-13T11:36:00.035Z,3204.00
2018-06-13T11:37:00.037Z,2984.00
2018-06-13T11:38:00.042Z,2784.00
2018-06-13T11:39:00.045Z,2708.00
2018-06-13T11:40:00.050Z,2736.00
2018-06-13T11:41:00.047Z,2944.00
2018-06-13T11:42:00.050Z,3152.00
2018-06-13T11:43:00.051Z,3104.00
2018-06-13T11:44:00.055Z,3156.00
2018-06-13T11:45:00.085Z,3228.00
2018-06-13T11:46:00.059Z,3184.00
2018-06-13T11:47:00.063Z,3204.00
2018-06-13T11:48:00.065Z,3240.00
2018-06-13T11:49:00.068Z,3316.00
2018-06-13T11:50:00.085Z,3492.00
2018-06-13T11:51:00.079Z,3472.00
2018-06-13T11:52:00.089Z,3440.00
2018-06-13T11:53:00.078Z,3460.00
2018-06-13T11:54:00.247Z,3460.00
2018-06-13T11:55:00.084Z,3508.00
2018-06-13T11:56:00.091Z,3564.00
2018-06-13T11:57:00.120Z,3608.00
2018-06-13T11:58:00.099Z,3664.00
2018-06-13T11:59:00.098Z,3756.00
2018-06-13T12:00:01.079Z,3864.00
2018-06-13T12:01:00.293Z,4052.00
2018-06-13T12:02:00.108Z,4240.00
2018-06-13T12:03:00.108Z,4340.00
2018-06-13T12:04:00.107Z,4464.00
2018-06-13T12:05:00.133Z,4536.00
2018-06-13T12:06:00.137Z,4568.00
2018-06-13T12:07:00.121Z,4552.00
2018-06-13T12:08:00.120Z,4492.00
2018-06-13T12:09:00.123Z,4480.00
2018-06-13T12:10:00.124Z,4500.00
2018-06-13T12:11:00.182Z,4436.00
2018-06-13T12:12:00.129Z,4252.00
2018-06-13T12:13:00.236Z,3924.00
2018-06-13T12:14:00.152Z,3504.00
2018-06-13T12:15:00.141Z,3344.00
2018-06-13T12:16:00.146Z,3392.00
2018-06-13T12:17:00.228Z,3324.00
2018-06-13T12:18:00.161Z,2972.00
2018-06-13T12:19:00.154Z,2808.00
2018-06-13T12:20:00.157Z,2824.00
2018-06-13T12:21:00.158Z,2696.00
2018-06-13T12:22:00.161Z,2876.00
2018-06-13T12:23:00.164Z,3056.00
2018-06-13T12:24:00.168Z,3076.00
2018-06-13T12:25:00.172Z,3052.00
2018-06-13T12:26:00.186Z,3100.00
2018-06-13T12:27:00.176Z,3152.00
2018-06-13T12:28:00.179Z,3212.00
2018-06-13T12:29:00.181Z,3384.00
2018-06-13T12:30:00.185Z,3572.00